sensor_id;sensor_type;location;lat;lon;timestamp;P1;durP1;ratioP1;P2;durP2;ratioP2
41426;SDS011;27171;51.812;19.514;2023-02-03T00:01:41;5.30;;;1.80;;
41426;SDS011;27171;51.812;19.514;2023-02-03T00:04:42;4.82;;;1.55;;
41426;SDS011;27171;51.812;19.514;2023-02-03T00:10:44;4.85;;;1.38;;
41426;SDS011;27171;51.812;19.514;2023-02-03T00:13:45;5.80;;;1.70;;
41426;SDS011;27171;51.812;19.514;2023-02-03T00:16:47;4.40;;;2.10;;
41426;SDS011;27171;51.812;19.514;2023-02-03T00:19:48;6.45;;;2.17;;
41426;SDS011;27171;51.812;19.514;2023-02-03T00:22:49;4.30;;;1.38;;
41426;SDS011;27171;51.812;19.514;2023-02-03T00:25:50;3.78;;;1.25;;
41426;SDS011;27171;51.812;19.514;2023-02-03T00:28:52;3.13;;;1.30;;
41426;SDS011;27171;51.812;19.514;2023-02-03T00:31:53;4.10;;;1.17;;
41426;SDS011;27171;51.812;19.514;2023-02-03T00:34:54;3.38;;;1.60;;
41426;SDS011;27171;51.812;19.514;2023-02-03T00:37:56;2.92;;;1.20;;
41426;SDS011;27171;51.812;19.514;2023-02-03T00:40:57;5.35;;;1.48;;
41426;SDS011;27171;51.812;19.514;2023-02-03T00:43:58;3.17;;;1.08;;
41426;SDS011;27171;51.812;19.514;2023-02-03T00:46:59;4.72;;;1.98;;
41426;SDS011;27171;51.812;19.514;2023-02-03T00:50:01;3.08;;;1.42;;
41426;SDS011;27171;51.812;19.514;2023-02-03T00:53:02;4.07;;;1.50;;
41426;SDS011;27171;51.812;19.514;2023-02-03T00:59:04;2.97;;;1.00;;
41426;SDS011;27171;51.812;19.514;2023-02-03T01:02:06;3.70;;;1.10;;
41426;SDS011;27171;51.812;19.514;2023-02-03T01:05:07;3.22;;;0.95;;
41426;SDS011;27171;51.812;19.514;2023-02-03T01:08:08;5.18;;;1.05;;
41426;SDS011;27171;51.812;19.514;2023-02-03T01:11:10;4.85;;;1.52;;
41426;SDS011;27171;51.812;19.514;2023-02-03T01:14:16;3.58;;;0.70;;
41426;SDS011;27171;51.812;19.514;2023-02-03T01:17:17;2.42;;;0.77;;
41426;SDS011;27171;51.812;19.514;2023-02-03T01:23:19;5.78;;;0.90;;
41426;SDS011;27171;51.812;19.514;2023-02-03T01:29:22;2.88;;;0.65;;
41426;SDS011;27171;51.812;19.514;2023-02-03T01:32:23;3.67;;;0.73;;
41426;SDS011;27171;51.812;19.514;2023-02-03T01:35:24;2.78;;;0.80;;
41426;SDS011;27171;51.812;19.514;2023-02-03T01:38:26;3.80;;;0.60;;
41426;SDS011;27171;51.812;19.514;2023-02-03T01:41:28;1.63;;;0.50;;
41426;SDS011;27171;51.812;19.514;2023-02-03T01:47:47;1.60;;;0.45;;
41426;SDS011;27171;51.812;19.514;2023-02-03T01:50:54;1.77;;;0.52;;
41426;SDS011;27171;51.812;19.514;2023-02-03T01:53:56;3.03;;;0.50;;
41426;SDS011;27171;51.812;19.514;2023-02-03T01:56:59;2.83;;;0.60;;
41426;SDS011;27171;51.812;19.514;2023-02-03T02:00:04;1.88;;;0.50;;
41426;SDS011;27171;51.812;19.514;2023-02-03T02:03:13;1.77;;;0.68;;
41426;SDS011;27171;51.812;19.514;2023-02-03T02:06:16;1.55;;;0.50;;
41426;SDS011;27171;51.812;19.514;2023-02-03T02:09:17;3.40;;;0.80;;
41426;SDS011;27171;51.812;19.514;2023-02-03T02:12:18;2.90;;;1.13;;
41426;SDS011;27171;51.812;19.514;2023-02-03T02:15:19;2.00;;;0.43;;
41426;SDS011;27171;51.812;19.514;2023-02-03T02:25:17;3.85;;;1.15;;
41426;SDS011;27171;51.812;19.514;2023-02-03T02:45:06;3.67;;;1.00;;
41426;SDS011;27171;51.812;19.514;2023-02-03T02:51:27;2.60;;;0.98;;
41426;SDS011;27171;51.812;19.514;2023-02-03T02:54:31;3.45;;;1.02;;
41426;SDS011;27171;51.812;19.514;2023-02-03T02:57:35;3.83;;;1.10;;
41426;SDS011;27171;51.812;19.514;2023-02-03T03:00:38;4.07;;;1.52;;
41426;SDS011;27171;51.812;19.514;2023-02-03T03:03:40;2.67;;;1.00;;
41426;SDS011;27171;51.812;19.514;2023-02-03T03:06:48;4.35;;;1.20;;
41426;SDS011;27171;51.812;19.514;2023-02-03T03:09:55;5.60;;;1.42;;
41426;SDS011;27171;51.812;19.514;2023-02-03T03:13:01;4.38;;;1.23;;
41426;SDS011;27171;51.812;19.514;2023-02-03T03:16:06;3.17;;;1.08;;
41426;SDS011;27171;51.812;19.514;2023-02-03T03:19:11;3.78;;;1.33;;
41426;SDS011;27171;51.812;19.514;2023-02-03T03:22:18;3.85;;;1.45;;
41426;SDS011;27171;51.812;19.514;2023-02-03T03:25:42;5.22;;;1.38;;
41426;SDS011;27171;51.812;19.514;2023-02-03T03:28:48;3.72;;;1.15;;
41426;SDS011;27171;51.812;19.514;2023-02-03T03:31:53;4.30;;;1.52;;
41426;SDS011;27171;51.812;19.514;2023-02-03T03:34:54;5.80;;;1.65;;
41426;SDS011;27171;51.812;19.514;2023-02-03T03:37:59;5.43;;;1.30;;
41426;SDS011;27171;51.812;19.514;2023-02-03T03:44:43;4.55;;;1.80;;
41426;SDS011;27171;51.812;19.514;2023-02-03T03:51:12;7.80;;;2.55;;
41426;SDS011;27171;51.812;19.514;2023-02-03T03:54:19;4.28;;;1.73;;
41426;SDS011;27171;51.812;19.514;2023-02-03T03:57:28;5.80;;;2.15;;
41426;SDS011;27171;51.812;19.514;2023-02-03T04:00:37;7.13;;;3.22;;
41426;SDS011;27171;51.812;19.514;2023-02-03T04:03:43;5.85;;;2.35;;
41426;SDS011;27171;51.812;19.514;2023-02-03T04:06:47;5.97;;;2.90;;
41426;SDS011;27171;51.812;19.514;2023-02-03T04:09:48;7.18;;;3.42;;
41426;SDS011;27171;51.812;19.514;2023-02-03T04:12:49;6.90;;;3.63;;
41426;SDS011;27171;51.812;19.514;2023-02-03T04:15:50;8.68;;;4.18;;
41426;SDS011;27171;51.812;19.514;2023-02-03T04:18:52;8.13;;;4.00;;
41426;SDS011;27171;51.812;19.514;2023-02-03T04:21:53;9.00;;;4.70;;
41426;SDS011;27171;51.812;19.514;2023-02-03T04:24:54;8.93;;;5.18;;
41426;SDS011;27171;51.812;19.514;2023-02-03T04:27:55;8.68;;;4.90;;
41426;SDS011;27171;51.812;19.514;2023-02-03T04:30:58;9.05;;;5.32;;
41426;SDS011;27171;51.812;19.514;2023-02-03T04:34:00;10.55;;;5.65;;
41426;SDS011;27171;51.812;19.514;2023-02-03T04:37:01;12.20;;;6.50;;
41426;SDS011;27171;51.812;19.514;2023-02-03T04:43:05;8.88;;;4.55;;
41426;SDS011;27171;51.812;19.514;2023-02-03T04:46:07;9.27;;;4.63;;
41426;SDS011;27171;51.812;19.514;2023-02-03T04:49:08;7.95;;;4.65;;
41426;SDS011;27171;51.812;19.514;2023-02-03T04:52:09;7.85;;;4.10;;
41426;SDS011;27171;51.812;19.514;2023-02-03T04:55:11;7.80;;;4.10;;
41426;SDS011;27171;51.812;19.514;2023-02-03T04:58:12;6.63;;;3.78;;
41426;SDS011;27171;51.812;19.514;2023-02-03T05:01:13;6.85;;;3.95;;
41426;SDS011;27171;51.812;19.514;2023-02-03T05:07:16;6.75;;;4.00;;
41426;SDS011;27171;51.812;19.514;2023-02-03T05:10:17;7.80;;;4.05;;
41426;SDS011;27171;51.812;19.514;2023-02-03T05:13:18;6.45;;;3.70;;
41426;SDS011;27171;51.812;19.514;2023-02-03T05:16:19;8.32;;;4.15;;
41426;SDS011;27171;51.812;19.514;2023-02-03T05:19:20;9.35;;;4.63;;
41426;SDS011;27171;51.812;19.514;2023-02-03T05:22:21;9.07;;;4.20;;
41426;SDS011;27171;51.812;19.514;2023-02-03T05:25:22;10.27;;;5.10;;
41426;SDS011;27171;51.812;19.514;2023-02-03T05:28:23;7.75;;;4.30;;
41426;SDS011;27171;51.812;19.514;2023-02-03T05:31:25;10.40;;;4.97;;
41426;SDS011;27171;51.812;19.514;2023-02-03T05:34:26;8.60;;;4.75;;
41426;SDS011;27171;51.812;19.514;2023-02-03T05:37:27;9.10;;;5.60;;
41426;SDS011;27171;51.812;19.514;2023-02-03T05:40:28;9.35;;;5.80;;
41426;SDS011;27171;51.812;19.514;2023-02-03T05:43:30;12.18;;;6.30;;
41426;SDS011;27171;51.812;19.514;2023-02-03T05:46:31;11.23;;;5.38;;
41426;SDS011;27171;51.812;19.514;2023-02-03T05:49:32;10.38;;;5.40;;
41426;SDS011;27171;51.812;19.514;2023-02-03T05:52:33;11.13;;;5.60;;
41426;SDS011;27171;51.812;19.514;2023-02-03T05:55:34;11.18;;;5.97;;
41426;SDS011;27171;51.812;19.514;2023-02-03T05:58:36;11.13;;;5.60;;
41426;SDS011;27171;51.812;19.514;2023-02-03T06:01:37;11.30;;;5.38;;
41426;SDS011;27171;51.812;19.514;2023-02-03T06:04:38;7.93;;;5.00;;
41426;SDS011;27171;51.812;19.514;2023-02-03T06:07:39;12.55;;;5.25;;
41426;SDS011;27171;51.812;19.514;2023-02-03T06:13:41;8.02;;;4.20;;
41426;SDS011;27171;51.812;19.514;2023-02-03T06:19:43;7.70;;;4.30;;
41426;SDS011;27171;51.812;19.514;2023-02-03T06:22:44;10.70;;;6.20;;
41426;SDS011;27171;51.812;19.514;2023-02-03T06:25:50;9.98;;;6.05;;
41426;SDS011;27171;51.812;19.514;2023-02-03T06:28:51;10.00;;;6.85;;
41426;SDS011;27171;51.812;19.514;2023-02-03T06:31:52;11.77;;;6.63;;
41426;SDS011;27171;51.812;19.514;2023-02-03T06:34:53;11.80;;;7.05;;
41426;SDS011;27171;51.812;19.514;2023-02-03T06:37:55;14.15;;;7.75;;
41426;SDS011;27171;51.812;19.514;2023-02-03T06:40:56;13.38;;;7.25;;
41426;SDS011;27171;51.812;19.514;2023-02-03T06:43:57;10.85;;;7.05;;
41426;SDS011;27171;51.812;19.514;2023-02-03T06:46:58;11.05;;;6.07;;
41426;SDS011;27171;51.812;19.514;2023-02-03T06:49:59;11.05;;;5.88;;
41426;SDS011;27171;51.812;19.514;2023-02-03T06:53:00;13.43;;;6.65;;
41426;SDS011;27171;51.812;19.514;2023-02-03T06:56:02;11.85;;;6.43;;
41426;SDS011;27171;51.812;19.514;2023-02-03T06:59:03;10.93;;;6.25;;
41426;SDS011;27171;51.812;19.514;2023-02-03T07:02:05;10.18;;;5.97;;
41426;SDS011;27171;51.812;19.514;2023-02-03T07:05:06;10.63;;;5.88;;
41426;SDS011;27171;51.812;19.514;2023-02-03T07:08:08;11.15;;;5.70;;
41426;SDS011;27171;51.812;19.514;2023-02-03T07:11:09;9.48;;;4.63;;
41426;SDS011;27171;51.812;19.514;2023-02-03T07:14:10;9.93;;;5.22;;
41426;SDS011;27171;51.812;19.514;2023-02-03T07:17:11;9.23;;;4.57;;
41426;SDS011;27171;51.812;19.514;2023-02-03T07:20:12;8.52;;;4.72;;
41426;SDS011;27171;51.812;19.514;2023-02-03T07:23:13;8.13;;;4.75;;
41426;SDS011;27171;51.812;19.514;2023-02-03T07:26:15;9.02;;;4.07;;
41426;SDS011;27171;51.812;19.514;2023-02-03T07:29:16;10.75;;;4.55;;
41426;SDS011;27171;51.812;19.514;2023-02-03T07:32:17;8.90;;;4.65;;
41426;SDS011;27171;51.812;19.514;2023-02-03T07:38:20;8.40;;;3.97;;
41426;SDS011;27171;51.812;19.514;2023-02-03T07:41:22;14.35;;;5.15;;
41426;SDS011;27171;51.812;19.514;2023-02-03T07:44:23;9.15;;;4.28;;
41426;SDS011;27171;51.812;19.514;2023-02-03T07:47:24;10.40;;;5.05;;
41426;SDS011;27171;51.812;19.514;2023-02-03T07:50:25;6.85;;;3.97;;
41426;SDS011;27171;51.812;19.514;2023-02-03T07:53:26;7.65;;;4.40;;
41426;SDS011;27171;51.812;19.514;2023-02-03T07:59:28;9.43;;;3.67;;
41426;SDS011;27171;51.812;19.514;2023-02-03T08:05:30;7.80;;;3.45;;
41426;SDS011;27171;51.812;19.514;2023-02-03T08:08:32;10.55;;;4.90;;
41426;SDS011;27171;51.812;19.514;2023-02-03T08:11:33;9.52;;;4.60;;
41426;SDS011;27171;51.812;19.514;2023-02-03T08:14:34;7.93;;;4.78;;
41426;SDS011;27171;51.812;19.514;2023-02-03T08:17:35;9.13;;;4.80;;
41426;SDS011;27171;51.812;19.514;2023-02-03T08:20:37;8.25;;;4.43;;
41426;SDS011;27171;51.812;19.514;2023-02-03T08:23:38;8.35;;;4.68;;
41426;SDS011;27171;51.812;19.514;2023-02-03T08:29:40;7.72;;;3.67;;
41426;SDS011;27171;51.812;19.514;2023-02-03T08:32:42;8.93;;;4.68;;
41426;SDS011;27171;51.812;19.514;2023-02-03T08:38:48;7.88;;;4.63;;
41426;SDS011;27171;51.812;19.514;2023-02-03T08:47:51;7.28;;;4.07;;
41426;SDS011;27171;51.812;19.514;2023-02-03T08:50:52;8.18;;;4.07;;
41426;SDS011;27171;51.812;19.514;2023-02-03T08:53:53;8.57;;;3.80;;
41426;SDS011;27171;51.812;19.514;2023-02-03T08:56:54;8.55;;;4.40;;
41426;SDS011;27171;51.812;19.514;2023-02-03T09:02:56;5.45;;;3.22;;
41426;SDS011;27171;51.812;19.514;2023-02-03T09:05:58;7.45;;;3.45;;
41426;SDS011;27171;51.812;19.514;2023-02-03T09:08:59;8.70;;;3.97;;
41426;SDS011;27171;51.812;19.514;2023-02-03T09:12:00;8.10;;;3.63;;
41426;SDS011;27171;51.812;19.514;2023-02-03T09:15:01;7.88;;;3.58;;
41426;SDS011;27171;51.812;19.514;2023-02-03T09:18:03;8.38;;;4.35;;
41426;SDS011;27171;51.812;19.514;2023-02-03T09:21:05;5.50;;;3.15;;
41426;SDS011;27171;51.812;19.514;2023-02-03T09:24:07;7.35;;;3.20;;
41426;SDS011;27171;51.812;19.514;2023-02-03T09:27:09;5.80;;;2.97;;
41426;SDS011;27171;51.812;19.514;2023-02-03T09:30:10;5.10;;;2.83;;
41426;SDS011;27171;51.812;19.514;2023-02-03T09:33:12;8.55;;;3.95;;
41426;SDS011;27171;51.812;19.514;2023-02-03T09:36:13;5.85;;;3.25;;
41426;SDS011;27171;51.812;19.514;2023-02-03T09:39:15;8.05;;;3.80;;
41426;SDS011;27171;51.812;19.514;2023-02-03T09:42:25;6.93;;;3.47;;
41426;SDS011;27171;51.812;19.514;2023-02-03T09:45:36;10.57;;;4.55;;
41426;SDS011;27171;51.812;19.514;2023-02-03T09:48:39;9.07;;;4.47;;
41426;SDS011;27171;51.812;19.514;2023-02-03T09:51:48;8.80;;;4.78;;
41426;SDS011;27171;51.812;19.514;2023-02-03T09:58:17;10.35;;;4.53;;
41426;SDS011;27171;51.812;19.514;2023-02-03T10:01:20;10.20;;;5.05;;
41426;SDS011;27171;51.812;19.514;2023-02-03T10:04:29;10.45;;;4.75;;
41426;SDS011;27171;51.812;19.514;2023-02-03T10:10:52;8.10;;;4.35;;
41426;SDS011;27171;51.812;19.514;2023-02-03T10:14:04;7.15;;;4.28;;
41426;SDS011;27171;51.812;19.514;2023-02-03T10:20:44;9.90;;;5.57;;
41426;SDS011;27171;51.812;19.514;2023-02-03T10:23:49;9.75;;;5.20;;
41426;SDS011;27171;51.812;19.514;2023-02-03T10:26:53;9.75;;;5.35;;
41426;SDS011;27171;51.812;19.514;2023-02-03T10:30:05;9.10;;;5.65;;
41426;SDS011;27171;51.812;19.514;2023-02-03T10:33:17;7.70;;;5.45;;
41426;SDS011;27171;51.812;19.514;2023-02-03T10:36:20;7.03;;;4.38;;
41426;SDS011;27171;51.812;19.514;2023-02-03T10:42:39;8.48;;;5.07;;
41426;SDS011;27171;51.812;19.514;2023-02-03T10:50:25;8.23;;;4.00;;
41426;SDS011;27171;51.812;19.514;2023-02-03T10:53:34;9.50;;;4.65;;
41426;SDS011;27171;51.812;19.514;2023-02-03T10:56:36;8.23;;;4.40;;
41426;SDS011;27171;51.812;19.514;2023-02-03T10:59:45;8.45;;;4.53;;
41426;SDS011;27171;51.812;19.514;2023-02-03T11:06:26;7.35;;;4.55;;
41426;SDS011;27171;51.812;19.514;2023-02-03T11:09:30;6.97;;;3.35;;
41426;SDS011;27171;51.812;19.514;2023-02-03T11:12:34;6.60;;;3.15;;
41426;SDS011;27171;51.812;19.514;2023-02-03T11:18:43;6.88;;;2.97;;
41426;SDS011;27171;51.812;19.514;2023-02-03T11:21:50;7.00;;;3.50;;
41426;SDS011;27171;51.812;19.514;2023-02-03T11:24:53;7.00;;;3.55;;
41426;SDS011;27171;51.812;19.514;2023-02-03T11:27:54;7.22;;;4.68;;
41426;SDS011;27171;51.812;19.514;2023-02-03T11:30:56;7.55;;;3.80;;
41426;SDS011;27171;51.812;19.514;2023-02-03T11:33:59;8.20;;;5.72;;
41426;SDS011;27171;51.812;19.514;2023-02-03T11:37:22;11.40;;;5.57;;
41426;SDS011;27171;51.812;19.514;2023-02-03T11:40:27;9.90;;;5.78;;
41426;SDS011;27171;51.812;19.514;2023-02-03T11:43:32;9.25;;;5.80;;
41426;SDS011;27171;51.812;19.514;2023-02-03T11:46:35;9.98;;;6.10;;
41426;SDS011;27171;51.812;19.514;2023-02-03T11:53:13;12.70;;;5.78;;
41426;SDS011;27171;51.812;19.514;2023-02-03T12:03:30;9.90;;;7.45;;
41426;SDS011;27171;51.812;19.514;2023-02-03T12:07:50;9.07;;;6.82;;
41426;SDS011;27171;51.812;19.514;2023-02-03T12:10:41;8.35;;;6.85;;
41426;SDS011;27171;51.812;19.514;2023-02-03T12:30:11;14.60;;;8.77;;
41426;SDS011;27171;51.812;19.514;2023-02-03T12:33:34;16.05;;;8.48;;
41426;SDS011;27171;51.812;19.514;2023-02-03T12:36:45;13.23;;;9.02;;
41426;SDS011;27171;51.812;19.514;2023-02-03T12:40:40;12.23;;;8.70;;
41426;SDS011;27171;51.812;19.514;2023-02-03T12:43:34;13.38;;;8.63;;
41426;SDS011;27171;51.812;19.514;2023-02-03T12:46:43;11.85;;;8.85;;
41426;SDS011;27171;51.812;19.514;2023-02-03T12:50:08;11.48;;;8.32;;
41426;SDS011;27171;51.812;19.514;2023-02-03T12:53:15;10.85;;;7.70;;
41426;SDS011;27171;51.812;19.514;2023-02-03T12:56:40;10.98;;;8.38;;
41426;SDS011;27171;51.812;19.514;2023-02-03T12:59:45;12.48;;;8.98;;
41426;SDS011;27171;51.812;19.514;2023-02-03T13:06:29;13.30;;;8.07;;
41426;SDS011;27171;51.812;19.514;2023-02-03T13:09:47;12.35;;;9.23;;
41426;SDS011;27171;51.812;19.514;2023-02-03T13:13:13;12.73;;;8.65;;
41426;SDS011;27171;51.812;19.514;2023-02-03T13:16:22;12.90;;;9.25;;
41426;SDS011;27171;51.812;19.514;2023-02-03T13:19:28;12.73;;;8.85;;
41426;SDS011;27171;51.812;19.514;2023-02-03T13:22:37;13.75;;;9.98;;
41426;SDS011;27171;51.812;19.514;2023-02-03T13:35:48;14.40;;;9.70;;
41426;SDS011;27171;51.812;19.514;2023-02-03T13:39:03;14.93;;;11.20;;
41426;SDS011;27171;51.812;19.514;2023-02-03T13:48:30;17.70;;;12.10;;
41426;SDS011;27171;51.812;19.514;2023-02-03T13:51:36;18.00;;;11.95;;
41426;SDS011;27171;51.812;19.514;2023-02-03T13:54:43;15.52;;;12.18;;
41426;SDS011;27171;51.812;19.514;2023-02-03T13:57:44;16.38;;;12.07;;
41426;SDS011;27171;51.812;19.514;2023-02-03T14:06:54;14.18;;;10.85;;
41426;SDS011;27171;51.812;19.514;2023-02-03T14:13:18;17.77;;;12.18;;
41426;SDS011;27171;51.812;19.514;2023-02-03T14:16:21;18.63;;;13.38;;
41426;SDS011;27171;51.812;19.514;2023-02-03T14:25:26;15.50;;;11.82;;
41426;SDS011;27171;51.812;19.514;2023-02-03T14:28:30;15.63;;;11.13;;
41426;SDS011;27171;51.812;19.514;2023-02-03T14:32:19;13.52;;;10.20;;
41426;SDS011;27171;51.812;19.514;2023-02-03T14:35:01;15.48;;;11.00;;
41426;SDS011;27171;51.812;19.514;2023-02-03T14:38:19;16.00;;;11.98;;
41426;SDS011;27171;51.812;19.514;2023-02-03T14:41:26;14.80;;;11.25;;
41426;SDS011;27171;51.812;19.514;2023-02-03T14:48:13;14.50;;;10.25;;
41426;SDS011;27171;51.812;19.514;2023-02-03T14:54:56;11.52;;;8.98;;
41426;SDS011;27171;51.812;19.514;2023-02-03T15:04:44;12.60;;;9.82;;
41426;SDS011;27171;51.812;19.514;2023-02-03T15:07:47;13.45;;;9.65;;
41426;SDS011;27171;51.812;19.514;2023-02-03T15:10:49;11.70;;;9.38;;
41426;SDS011;27171;51.812;19.514;2023-02-03T15:13:51;13.75;;;9.82;;
41426;SDS011;27171;51.812;19.514;2023-02-03T15:16:55;12.63;;;9.48;;
41426;SDS011;27171;51.812;19.514;2023-02-03T15:19:58;13.93;;;10.88;;
41426;SDS011;27171;51.812;19.514;2023-02-03T15:23:00;13.65;;;11.02;;
41426;SDS011;27171;51.812;19.514;2023-02-03T15:26:08;17.95;;;13.18;;
41426;SDS011;27171;51.812;19.514;2023-02-03T15:29:20;15.73;;;11.32;;
41426;SDS011;27171;51.812;19.514;2023-02-03T15:32:34;15.27;;;11.85;;
41426;SDS011;27171;51.812;19.514;2023-02-03T15:35:41;20.15;;;14.02;;
41426;SDS011;27171;51.812;19.514;2023-02-03T15:38:47;16.50;;;13.05;;
41426;SDS011;27171;51.812;19.514;2023-02-03T15:41:52;17.35;;;12.88;;
41426;SDS011;27171;51.812;19.514;2023-02-03T15:48:40;16.90;;;13.40;;
41426;SDS011;27171;51.812;19.514;2023-02-03T15:51:50;16.77;;;14.00;;
41426;SDS011;27171;51.812;19.514;2023-02-03T15:55:30;17.60;;;13.40;;
41426;SDS011;27171;51.812;19.514;2023-02-03T15:58:33;27.70;;;19.23;;
41426;SDS011;27171;51.812;19.514;2023-02-03T16:01:45;25.90;;;20.10;;
41426;SDS011;27171;51.812;19.514;2023-02-03T16:04:46;24.70;;;19.77;;
41426;SDS011;27171;51.812;19.514;2023-02-03T16:07:48;24.88;;;16.55;;
41426;SDS011;27171;51.812;19.514;2023-02-03T16:10:50;27.30;;;20.20;;
41426;SDS011;27171;51.812;19.514;2023-02-03T16:13:52;24.10;;;18.35;;
41426;SDS011;27171;51.812;19.514;2023-02-03T16:16:53;31.77;;;20.90;;
41426;SDS011;27171;51.812;19.514;2023-02-03T16:23:19;31.98;;;20.80;;
41426;SDS011;27171;51.812;19.514;2023-02-03T16:26:23;30.05;;;20.98;;
41426;SDS011;27171;51.812;19.514;2023-02-03T16:29:28;32.95;;;20.80;;
41426;SDS011;27171;51.812;19.514;2023-02-03T16:32:35;29.27;;;18.58;;
41426;SDS011;27171;51.812;19.514;2023-02-03T16:35:36;28.63;;;17.58;;
41426;SDS011;27171;51.812;19.514;2023-02-03T16:38:42;23.13;;;16.27;;
41426;SDS011;27171;51.812;19.514;2023-02-03T16:41:44;30.85;;;18.13;;
41426;SDS011;27171;51.812;19.514;2023-02-03T16:44:45;27.45;;;16.35;;
41426;SDS011;27171;51.812;19.514;2023-02-03T16:50:47;27.95;;;16.17;;
41426;SDS011;27171;51.812;19.514;2023-02-03T16:53:49;26.40;;;16.00;;
41426;SDS011;27171;51.812;19.514;2023-02-03T16:56:50;32.70;;;15.52;;
41426;SDS011;27171;51.812;19.514;2023-02-03T17:02:52;21.27;;;11.35;;
41426;SDS011;27171;51.812;19.514;2023-02-03T17:05:54;30.33;;;13.10;;
41426;SDS011;27171;51.812;19.514;2023-02-03T17:08:56;27.52;;;12.45;;
41426;SDS011;27171;51.812;19.514;2023-02-03T17:11:57;24.42;;;11.27;;
41426;SDS011;27171;51.812;19.514;2023-02-03T17:14:58;26.30;;;14.30;;
41426;SDS011;27171;51.812;19.514;2023-02-03T17:21:04;19.55;;;10.10;;
41426;SDS011;27171;51.812;19.514;2023-02-03T17:24:06;29.05;;;11.10;;
41426;SDS011;27171;51.812;19.514;2023-02-03T17:27:07;28.58;;;9.35;;
41426;SDS011;27171;51.812;19.514;2023-02-03T17:30:09;23.33;;;9.65;;
41426;SDS011;27171;51.812;19.514;2023-02-03T17:33:10;35.17;;;11.30;;
41426;SDS011;27171;51.812;19.514;2023-02-03T17:39:14;23.50;;;8.57;;
41426;SDS011;27171;51.812;19.514;2023-02-03T17:42:15;23.85;;;8.23;;
41426;SDS011;27171;51.812;19.514;2023-02-03T17:48:17;19.02;;;7.95;;
41426;SDS011;27171;51.812;19.514;2023-02-03T17:51:21;17.23;;;6.75;;
41426;SDS011;27171;51.812;19.514;2023-02-03T17:54:23;21.20;;;8.15;;
41426;SDS011;27171;51.812;19.514;2023-02-03T17:57:24;19.77;;;7.40;;
41426;SDS011;27171;51.812;19.514;2023-02-03T18:03:26;28.63;;;10.07;;
41426;SDS011;27171;51.812;19.514;2023-02-03T18:06:27;23.80;;;7.85;;
41426;SDS011;27171;51.812;19.514;2023-02-03T18:09:30;22.52;;;6.82;;
41426;SDS011;27171;51.812;19.514;2023-02-03T18:15:32;22.25;;;6.43;;
41426;SDS011;27171;51.812;19.514;2023-02-03T18:18:33;20.83;;;6.65;;
41426;SDS011;27171;51.812;19.514;2023-02-03T18:21:36;22.35;;;7.15;;
41426;SDS011;27171;51.812;19.514;2023-02-03T18:24:38;19.52;;;6.35;;
41426;SDS011;27171;51.812;19.514;2023-02-03T18:27:39;22.17;;;7.13;;
41426;SDS011;27171;51.812;19.514;2023-02-03T18:30:40;28.75;;;7.47;;
41426;SDS011;27171;51.812;19.514;2023-02-03T18:33:44;20.83;;;5.85;;
41426;SDS011;27171;51.812;19.514;2023-02-03T18:36:46;23.80;;;8.40;;
41426;SDS011;27171;51.812;19.514;2023-02-03T18:42:48;22.95;;;6.40;;
41426;SDS011;27171;51.812;19.514;2023-02-03T18:45:49;33.53;;;7.85;;
41426;SDS011;27171;51.812;19.514;2023-02-03T18:48:50;29.52;;;8.27;;
41426;SDS011;27171;51.812;19.514;2023-02-03T18:51:51;27.83;;;7.72;;
41426;SDS011;27171;51.812;19.514;2023-02-03T18:54:52;21.58;;;7.45;;
41426;SDS011;27171;51.812;19.514;2023-02-03T18:57:53;28.88;;;9.10;;
41426;SDS011;27171;51.812;19.514;2023-02-03T19:00:55;30.80;;;9.43;;
41426;SDS011;27171;51.812;19.514;2023-02-03T19:06:58;26.25;;;9.48;;
41426;SDS011;27171;51.812;19.514;2023-02-03T19:09:59;21.38;;;7.82;;
41426;SDS011;27171;51.812;19.514;2023-02-03T19:13:00;31.80;;;9.07;;
41426;SDS011;27171;51.812;19.514;2023-02-03T19:16:01;23.17;;;7.03;;
41426;SDS011;27171;51.812;19.514;2023-02-03T19:19:02;20.65;;;7.57;;
41426;SDS011;27171;51.812;19.514;2023-02-03T19:22:03;21.75;;;7.90;;
41426;SDS011;27171;51.812;19.514;2023-02-03T19:25:05;24.85;;;8.70;;
41426;SDS011;27171;51.812;19.514;2023-02-03T19:28:06;24.15;;;8.40;;
41426;SDS011;27171;51.812;19.514;2023-02-03T19:31:09;23.35;;;7.72;;
41426;SDS011;27171;51.812;19.514;2023-02-03T19:34:16;26.02;;;8.40;;
41426;SDS011;27171;51.812;19.514;2023-02-03T19:37:17;24.50;;;9.40;;
41426;SDS011;27171;51.812;19.514;2023-02-03T19:40:18;19.58;;;7.18;;
41426;SDS011;27171;51.812;19.514;2023-02-03T19:43:19;20.13;;;8.80;;
41426;SDS011;27171;51.812;19.514;2023-02-03T19:46:20;19.27;;;9.05;;
41426;SDS011;27171;51.812;19.514;2023-02-03T19:49:22;21.27;;;7.45;;
41426;SDS011;27171;51.812;19.514;2023-02-03T19:58:25;23.52;;;7.45;;
41426;SDS011;27171;51.812;19.514;2023-02-03T20:01:26;19.88;;;7.05;;
41426;SDS011;27171;51.812;19.514;2023-02-03T20:04:27;17.27;;;6.47;;
41426;SDS011;27171;51.812;19.514;2023-02-03T20:07:28;15.73;;;5.88;;
41426;SDS011;27171;51.812;19.514;2023-02-03T20:10:29;19.15;;;7.30;;
41426;SDS011;27171;51.812;19.514;2023-02-03T20:16:31;13.90;;;5.47;;
41426;SDS011;27171;51.812;19.514;2023-02-03T20:19:32;19.85;;;6.57;;
41426;SDS011;27171;51.812;19.514;2023-02-03T20:22:34;20.98;;;8.40;;
41426;SDS011;27171;51.812;19.514;2023-02-03T20:25:35;18.52;;;7.57;;
41426;SDS011;27171;51.812;19.514;2023-02-03T20:28:36;20.17;;;7.88;;
41426;SDS011;27171;51.812;19.514;2023-02-03T20:31:37;16.85;;;7.07;;
41426;SDS011;27171;51.812;19.514;2023-02-03T20:34:38;17.35;;;7.85;;
41426;SDS011;27171;51.812;19.514;2023-02-03T20:37:39;21.05;;;7.75;;
41426;SDS011;27171;51.812;19.514;2023-02-03T20:40:41;14.68;;;6.60;;
41426;SDS011;27171;51.812;19.514;2023-02-03T20:43:42;14.80;;;7.20;;
41426;SDS011;27171;51.812;19.514;2023-02-03T20:46:44;13.45;;;5.28;;
41426;SDS011;27171;51.812;19.514;2023-02-03T20:49:46;19.80;;;7.07;;
41426;SDS011;27171;51.812;19.514;2023-02-03T20:52:47;15.57;;;6.57;;
41426;SDS011;27171;51.812;19.514;2023-02-03T20:55:50;20.00;;;6.88;;
41426;SDS011;27171;51.812;19.514;2023-02-03T20:58:53;21.90;;;8.05;;
41426;SDS011;27171;51.812;19.514;2023-02-03T21:04:55;18.48;;;6.90;;
41426;SDS011;27171;51.812;19.514;2023-02-03T21:08:02;21.13;;;7.40;;
41426;SDS011;27171;51.812;19.514;2023-02-03T21:11:19;17.88;;;7.43;;
41426;SDS011;27171;51.812;19.514;2023-02-03T21:14:26;18.27;;;6.72;;
41426;SDS011;27171;51.812;19.514;2023-02-03T21:17:35;17.55;;;7.05;;
41426;SDS011;27171;51.812;19.514;2023-02-03T21:20:38;17.42;;;8.43;;
41426;SDS011;27171;51.812;19.514;2023-02-03T21:23:40;23.48;;;7.00;;
41426;SDS011;27171;51.812;19.514;2023-02-03T21:26:43;15.30;;;6.75;;
41426;SDS011;27171;51.812;19.514;2023-02-03T21:29:45;17.42;;;6.40;;
41426;SDS011;27171;51.812;19.514;2023-02-03T21:32:49;15.18;;;5.88;;
41426;SDS011;27171;51.812;19.514;2023-02-03T21:35:50;11.95;;;5.15;;
41426;SDS011;27171;51.812;19.514;2023-02-03T21:38:55;14.15;;;5.10;;
41426;SDS011;27171;51.812;19.514;2023-02-03T21:42:17;14.55;;;5.25;;
41426;SDS011;27171;51.812;19.514;2023-02-03T21:48:40;13.55;;;5.80;;
41426;SDS011;27171;51.812;19.514;2023-02-03T21:51:50;11.82;;;4.60;;
41426;SDS011;27171;51.812;19.514;2023-02-03T21:54:51;10.68;;;4.55;;
41426;SDS011;27171;51.812;19.514;2023-02-03T21:57:53;11.73;;;5.20;;